createdAt,value
2024-01-15T00:00:30.977Z,49.69
2024-01-15T00:03:18.234Z,49.72
2024-01-15T00:05:45.675Z,49.93
2024-01-15T00:08:12.824Z,49.88
2024-01-15T00:10:41.572Z,50.18
2024-01-15T00:13:08.698Z,49.75
2024-01-15T00:15:35.676Z,50.11
2024-01-15T00:18:03.105Z,49.86
2024-01-15T00:20:31.188Z,50.09
2024-01-15T00:22:58.482Z,50.61
2024-01-15T00:25:25.325Z,50.11
2024-01-15T00:27:52.454Z,50.13
2024-01-15T00:30:19.671Z,50.20
2024-01-15T00:32:47.059Z,50.30
2024-01-15T00:35:14.237Z,50.03
2024-01-15T00:37:41.458Z,50.36
2024-01-15T00:40:09.239Z,50.52
2024-01-15T00:42:36.440Z,50.04
2024-01-15T00:45:03.707Z,50.16
2024-01-15T00:47:30.944Z,49.89
2024-01-15T00:49:57.849Z,50.09
2024-01-15T00:52:24.986Z,50.03
2024-01-15T00:54:51.950Z,49.93
2024-01-15T00:57:20.382Z,49.92
2024-01-15T00:59:48.293Z,49.96
2024-01-15T01:02:15.408Z,50.13
2024-01-15T01:04:42.191Z,50.18
2024-01-15T01:07:09.295Z,49.96
2024-01-15T01:09:36.110Z,50.03
2024-01-15T01:12:03.547Z,50.33
2024-01-15T01:14:30.436Z,50.04
2024-01-15T01:16:57.842Z,49.48
2024-01-15T01:19:26.522Z,50.08
2024-01-15T01:21:53.777Z,50.17
2024-01-15T01:24:20.622Z,49.60
2024-01-15T01:26:47.964Z,49.54
2024-01-15T01:29:14.777Z,49.67
2024-01-15T01:31:45.760Z,49.87
2024-01-15T01:34:15.470Z,49.88
2024-01-15T01:36:43.572Z,49.87
2024-01-15T01:39:10.592Z,50.32
2024-01-15T01:41:39.033Z,50.24
2024-01-15T01:44:05.895Z,49.93
2024-01-15T01:46:33.079Z,49.85
2024-01-15T01:49:02.766Z,49.62
2024-01-15T01:51:29.898Z,49.69
2024-01-15T01:53:56.767Z,50.05
2024-01-15T01:56:23.853Z,49.63
2024-01-15T01:58:50.657Z,49.40
2024-01-15T02:01:18.275Z,49.64
2024-01-15T02:03:45.208Z,50.07
2024-01-15T02:06:12.400Z,49.95
2024-01-15T02:08:39.348Z,49.99
2024-01-15T02:11:06.420Z,49.73
2024-01-15T02:13:33.203Z,49.08
2024-01-15T02:16:00.351Z,49.32
2024-01-15T02:18:27.375Z,49.70
2024-01-15T02:20:54.636Z,49.42
2024-01-15T02:23:21.510Z,49.17
2024-01-15T02:25:48.722Z,49.13
2024-01-15T02:28:17.082Z,49.43
2024-01-15T02:30:44.776Z,49.15
2024-01-15T02:33:12.562Z,49.40
2024-01-15T02:35:39.979Z,49.42
2024-01-15T02:38:07.291Z,49.50
2024-01-15T02:40:34.575Z,49.07
2024-01-15T02:43:01.470Z,49.40
2024-01-15T02:45:28.827Z,48.92
2024-01-15T02:47:55.775Z,49.15
2024-01-15T02:50:22.895Z,48.89
2024-01-15T02:52:49.826Z,49.15
2024-01-15T02:55:17.125Z,48.96
2024-01-15T02:57:44.113Z,48.63
2024-01-15T03:00:12.888Z,48.97
2024-01-15T03:02:48.532Z,48.82
2024-01-15T03:05:16.474Z,49.10
2024-01-15T03:07:43.629Z,49.03
2024-01-15T03:10:10.864Z,48.67
2024-01-15T03:12:37.684Z,48.98
2024-01-15T03:15:05.393Z,48.82
2024-01-15T03:17:32.372Z,48.85
2024-01-15T03:19:59.724Z,48.76
2024-01-15T03:22:26.549Z,48.61
2024-01-15T03:24:54.117Z,49.03
2024-01-15T03:27:21.023Z,48.78
2024-01-15T03:29:48.246Z,48.71
2024-01-15T03:32:16.878Z,48.43
2024-01-15T03:34:44.049Z,48.68
2024-01-15T03:37:10.885Z,48.85
2024-01-15T03:39:38.130Z,48.84
2024-01-15T03:42:05.289Z,48.85
2024-01-15T03:44:32.464Z,48.77
2024-01-15T03:46:59.684Z,48.71
2024-01-15T03:49:26.985Z,48.53
2024-01-15T03:51:53.947Z,48.54
2024-01-15T03:54:21.298Z,48.59
2024-01-15T03:56:48.223Z,48.43
2024-01-15T03:59:15.359Z,48.50
2024-01-15T04:01:42.339Z,48.64
2024-01-15T04:04:09.663Z,48.32
2024-01-15T04:06:36.674Z,48.45
2024-01-15T04:09:04.055Z,48.40
2024-01-15T04:11:30.938Z,48.51
2024-01-15T04:13:58.053Z,48.47
2024-01-15T04:16:24.912Z,48.19
2024-01-15T04:18:52.389Z,48.29
2024-01-15T04:21:19.874Z,48.41
2024-01-15T04:23:47.098Z,48.47
2024-01-15T04:26:13.963Z,48.69
2024-01-15T04:28:41.572Z,48.36
2024-01-15T04:31:08.586Z,48.32
2024-01-15T04:33:36.033Z,47.98
2024-01-15T04:36:04.893Z,48.48
2024-01-15T04:38:33.602Z,47.98
2024-01-15T04:41:00.404Z,48.17
2024-01-15T04:43:27.499Z,48.14
2024-01-15T04:45:54.382Z,48.25
2024-01-15T04:48:21.568Z,48.09
2024-01-15T04:50:49.112Z,48.58
2024-01-15T04:53:16.518Z,48.28
2024-01-15T04:55:43.325Z,48.06
2024-01-15T04:58:10.441Z,48.43
2024-01-15T05:00:37.295Z,48.15
2024-01-15T05:03:04.782Z,48.41
2024-01-15T05:05:31.828Z,48.47
2024-01-15T05:07:58.957Z,48.35
2024-01-15T05:10:25.834Z,48.59
2024-01-15T05:12:53.659Z,48.72
2024-01-15T05:15:21.049Z,48.59
2024-01-15T05:17:48.432Z,48.43
2024-01-15T05:20:15.782Z,48.67
2024-01-15T05:22:43.003Z,48.47
2024-01-15T05:25:09.838Z,48.36
2024-01-15T05:27:36.987Z,48.29
2024-01-15T05:30:05.143Z,48.23
2024-01-15T05:32:33.156Z,48.33
2024-01-15T05:35:00.095Z,48.16
2024-01-15T05:37:27.288Z,48.75
2024-01-15T05:39:54.247Z,48.38
2024-01-15T05:42:21.714Z,48.34
2024-01-15T05:44:48.534Z,48.38
2024-01-15T05:47:15.758Z,48.41
2024-01-15T05:49:42.680Z,48.54
2024-01-15T05:52:09.908Z,48.46
2024-01-15T05:54:36.765Z,48.23
2024-01-15T05:57:04.301Z,48.99
2024-01-15T05:59:33.418Z,48.66
2024-01-15T06:02:00.602Z,48.41
2024-01-15T06:04:27.533Z,48.48
2024-01-15T06:06:54.739Z,48.31
2024-01-15T06:09:21.573Z,48.41
2024-01-15T06:11:48.662Z,48.61
2024-01-15T06:14:15.501Z,48.54
2024-01-15T06:16:42.592Z,48.53
2024-01-15T06:19:09.655Z,48.37
2024-01-15T06:21:36.969Z,48.56
2024-01-15T06:24:03.960Z,48.42
2024-01-15T06:26:31.041Z,48.05
2024-01-15T06:28:57.845Z,48.14
2024-01-15T06:31:25.025Z,48.91
2024-01-15T06:33:52.068Z,48.62
2024-01-15T06:36:19.594Z,48.60
2024-01-15T06:38:46.442Z,48.72
2024-01-15T06:41:13.681Z,48.78
2024-01-15T06:43:40.648Z,48.64
2024-01-15T06:46:08.757Z,48.47
2024-01-15T06:48:36.068Z,48.81
2024-01-15T06:51:03.402Z,48.93
2024-01-15T06:53:30.189Z,48.63
2024-01-15T06:55:57.375Z,48.67
2024-01-15T06:58:24.217Z,48.47
2024-01-15T07:00:51.544Z,48.49
2024-01-15T07:03:18.665Z,48.67
2024-01-15T07:05:46.009Z,48.43
2024-01-15T07:08:12.909Z,48.42
2024-01-15T07:10:40.039Z,48.43
2024-01-15T07:13:07.010Z,48.46
2024-01-15T07:15:34.268Z,48.57
2024-01-15T07:18:01.164Z,48.49
2024-01-15T07:20:28.663Z,48.33
2024-01-15T07:22:55.438Z,48.29
2024-01-15T07:25:22.746Z,48.41
2024-01-15T07:27:49.649Z,48.43
2024-01-15T07:30:16.973Z,48.14
2024-01-15T07:32:43.905Z,47.99
2024-01-15T07:35:11.719Z,47.97
2024-01-15T07:37:38.638Z,48.23
2024-01-15T07:40:08.070Z,48.39
2024-01-15T07:42:35.974Z,48.27
2024-01-15T07:45:03.241Z,48.08
2024-01-15T07:47:30.062Z,48.01
2024-01-15T07:50:00.257Z,47.73
2024-01-15T07:52:28.927Z,48.04
2024-01-15T07:54:56.245Z,47.87
2024-01-15T07:57:24.020Z,47.74
2024-01-15T07:59:51.156Z,47.92
2024-01-15T08:02:18.013Z,47.90
2024-01-15T08:04:46.192Z,47.90
2024-01-15T08:07:14.458Z,47.73
2024-01-15T08:09:41.694Z,47.78
2024-01-15T08:12:08.768Z,47.89
2024-01-15T08:14:35.931Z,47.63
2024-01-15T08:17:02.961Z,47.86
2024-01-15T08:19:30.979Z,47.68
2024-01-15T08:21:57.941Z,47.70
2024-01-15T08:24:24.668Z,47.82
2024-01-15T08:26:51.809Z,47.64
2024-01-15T08:29:19.991Z,47.79
2024-01-15T08:31:47.332Z,47.44
2024-01-15T08:34:14.295Z,47.43
2024-01-15T08:36:42.007Z,47.74
2024-01-15T08:39:10.322Z,47.50
2024-01-15T08:41:37.623Z,47.57
2024-01-15T08:44:04.560Z,47.51
2024-01-15T08:46:31.695Z,47.85
2024-01-15T08:48:58.800Z,47.60
2024-01-15T08:51:25.970Z,47.70
2024-01-15T08:53:52.773Z,47.76
2024-01-15T08:56:19.874Z,47.56
2024-01-15T08:58:47.455Z,47.69
2024-01-15T09:01:14.936Z,47.75
2024-01-15T09:03:44.012Z,47.49
2024-01-15T09:06:11.846Z,47.56
2024-01-15T09:08:38.959Z,47.74
2024-01-15T09:11:06.163Z,47.84
2024-01-15T09:13:33.423Z,47.96
2024-01-15T09:16:01.385Z,47.77
2024-01-15T09:18:29.182Z,47.92
2024-01-15T09:20:56.481Z,47.51
2024-01-15T09:23:23.321Z,47.81
2024-01-15T09:25:50.903Z,47.88
2024-01-15T09:28:17.723Z,47.89
2024-01-15T09:30:46.576Z,47.49
2024-01-15T09:33:13.621Z,47.55
2024-01-15T09:35:41.120Z,47.56
2024-01-15T09:38:07.933Z,47.80
2024-01-15T09:40:35.170Z,47.50
2024-01-15T09:43:02.808Z,47.64
2024-01-15T09:45:30.217Z,47.72
2024-01-15T09:47:57.213Z,47.44
2024-01-15T09:50:24.406Z,47.28
2024-01-15T09:52:51.427Z,47.45
2024-01-15T09:55:18.863Z,47.24
2024-01-15T09:57:47.336Z,47.24
2024-01-15T10:00:15.039Z,47.04
2024-01-15T10:02:41.863Z,47.46
2024-01-15T10:05:09.398Z,47.20
2024-01-15T10:07:36.840Z,46.75
2024-01-15T10:10:06.961Z,46.67
2024-01-15T10:12:34.032Z,46.46
2024-01-15T10:15:01.220Z,46.39
2024-01-15T10:17:32.304Z,46.82
2024-01-15T10:19:59.505Z,47.03
2024-01-15T10:22:27.136Z,46.56
2024-01-15T10:24:54.388Z,46.54
2024-01-15T10:27:21.378Z,46.28
2024-01-15T10:29:48.622Z,46.73
2024-01-15T10:32:15.554Z,46.64
2024-01-15T10:34:44.602Z,46.45
2024-01-15T10:37:12.097Z,46.38
2024-01-15T10:39:40.382Z,46.29
2024-01-15T10:42:08.247Z,46.31
2024-01-15T10:44:36.624Z,46.47
2024-01-15T10:47:03.859Z,46.28
2024-01-15T10:49:33.399Z,46.33
2024-01-15T10:52:04.901Z,46.48
2024-01-15T10:54:32.918Z,46.33
2024-01-15T10:56:59.898Z,46.58
2024-01-15T10:59:27.053Z,46.38
2024-01-15T11:01:55.657Z,46.31
2024-01-15T11:04:24.818Z,46.38
2024-01-15T11:06:55.144Z,46.46
2024-01-15T11:09:24.581Z,46.33
2024-01-15T11:11:54.224Z,46.31
2024-01-15T11:14:36.804Z,46.20
2024-01-15T11:17:03.830Z,46.54
2024-01-15T11:19:43.363Z,46.39
2024-01-15T11:22:11.057Z,46.28
2024-01-15T11:24:41.621Z,46.18
2024-01-15T11:27:09.317Z,46.30
2024-01-15T11:29:37.419Z,46.48
2024-01-15T11:32:10.628Z,46.45
2024-01-15T11:35:00.861Z,46.37
2024-01-15T11:37:28.960Z,46.57
2024-01-15T11:39:57.866Z,46.46
2024-01-15T11:42:24.886Z,46.27
2024-01-15T11:44:52.160Z,46.34
2024-01-15T11:47:38.265Z,45.88
2024-01-15T11:50:07.393Z,46.26
2024-01-15T11:52:35.960Z,46.20
2024-01-15T11:55:09.014Z,46.25
2024-01-15T11:57:51.953Z,46.14
2024-01-15T12:00:19.224Z,46.12
2024-01-15T12:02:47.191Z,46.06
2024-01-15T12:05:16.118Z,45.87
2024-01-15T12:07:43.779Z,46.02
2024-01-15T12:10:17.694Z,46.21
2024-01-15T12:13:02.014Z,45.85
2024-01-15T12:15:30.068Z,45.92
2024-01-15T12:17:59.012Z,45.78
2024-01-15T12:20:33.377Z,45.87
2024-01-15T12:23:02.712Z,46.01
2024-01-15T12:25:31.676Z,46.04
2024-01-15T12:27:59.044Z,46.10
2024-01-15T12:30:27.848Z,46.07
2024-01-15T12:32:55.266Z,46.01
2024-01-15T12:35:22.503Z,46.46
2024-01-15T12:37:49.323Z,46.67
2024-01-15T12:40:20.501Z,46.57
2024-01-15T12:42:47.679Z,46.59
2024-01-15T12:45:15.407Z,46.31
2024-01-15T12:47:42.691Z,46.19
2024-01-15T12:50:19.273Z,46.06
2024-01-15T12:52:47.435Z,46.27
2024-01-15T12:55:14.874Z,46.05
2024-01-15T12:57:41.866Z,46.35
2024-01-15T13:00:13.759Z,45.85
2024-01-15T13:02:42.808Z,46.24
2024-01-15T13:05:12.714Z,46.12
2024-01-15T13:07:40.476Z,46.09
2024-01-15T13:10:08.144Z,46.14
2024-01-15T13:12:35.620Z,45.94
2024-01-15T13:15:04.842Z,45.95
2024-01-15T13:17:32.177Z,45.76
2024-01-15T13:19:59.969Z,45.99
2024-01-15T13:22:31.620Z,45.96
2024-01-15T13:24:59.791Z,45.89
2024-01-15T13:27:26.692Z,45.93
2024-01-15T13:29:53.865Z,45.69
2024-01-15T13:32:25.533Z,45.69
2024-01-15T13:34:52.724Z,45.57
2024-01-15T13:37:19.570Z,45.58
2024-01-15T13:39:46.788Z,45.66
2024-01-15T13:42:13.640Z,45.77
2024-01-15T13:44:40.786Z,45.85
2024-01-15T13:47:07.841Z,45.67
2024-01-15T13:49:35.660Z,45.56
2024-01-15T13:52:05.111Z,45.59
2024-01-15T13:54:44.731Z,45.53
2024-01-15T13:57:16.526Z,45.40
2024-01-15T13:59:43.816Z,45.49
2024-01-15T14:02:11.285Z,45.32
2024-01-15T14:04:39.791Z,45.32
2024-01-15T14:07:07.410Z,45.55
2024-01-15T14:09:34.837Z,45.35
2024-01-15T14:12:01.828Z,45.59
2024-01-15T14:14:28.969Z,45.69
2024-01-15T14:16:55.822Z,45.20
2024-01-15T14:19:23.308Z,45.34
2024-01-15T14:21:50.374Z,45.13
2024-01-15T14:24:18.800Z,45.38
2024-01-15T14:26:46.976Z,45.44
2024-01-15T14:29:14.125Z,45.54
2024-01-15T14:31:41.178Z,45.43
2024-01-15T14:34:10.079Z,45.36
2024-01-15T14:36:37.059Z,45.27
2024-01-15T14:39:04.165Z,45.36
2024-01-15T14:41:31.305Z,45.19
2024-01-15T14:43:58.746Z,45.57
2024-01-15T14:46:28.263Z,45.34
2024-01-15T14:48:55.504Z,45.33
2024-01-15T14:51:22.443Z,45.63
2024-01-15T14:53:49.682Z,45.05
2024-01-15T14:56:18.600Z,45.32
2024-01-15T14:58:46.036Z,45.54
2024-01-15T15:01:13.832Z,45.06
2024-01-15T15:03:41.617Z,45.59
2024-01-15T15:06:09.020Z,45.23
2024-01-15T15:08:38.011Z,45.25
2024-01-15T15:11:05.314Z,45.24
2024-01-15T15:13:41.714Z,45.14
2024-01-15T15:16:12.547Z,45.40
2024-01-15T15:18:39.967Z,45.39
2024-01-15T15:21:08.526Z,45.32
2024-01-15T15:23:35.839Z,45.28
2024-01-15T15:26:02.865Z,45.41
2024-01-15T15:28:30.050Z,45.33
2024-01-15T15:30:58.246Z,44.98
2024-01-15T15:33:26.124Z,45.17
2024-01-15T15:35:53.283Z,45.38
2024-01-15T15:38:21.181Z,45.49
2024-01-15T15:40:47.980Z,45.41
2024-01-15T15:43:15.084Z,45.52
2024-01-15T15:45:42.068Z,45.77
2024-01-15T15:48:09.355Z,45.99
2024-01-15T15:50:37.871Z,45.73
2024-01-15T15:53:05.587Z,46.56
2024-01-15T15:55:33.078Z,47.14
2024-01-15T15:58:00.401Z,47.40
2024-01-15T16:00:27.660Z,47.20
2024-01-15T16:02:54.817Z,47.46
2024-01-15T16:05:25.561Z,47.15
2024-01-15T16:07:55.981Z,46.77
2024-01-15T16:10:22.812Z,47.09
2024-01-15T16:12:49.963Z,46.71
2024-01-15T16:15:23.419Z,46.83
2024-01-15T16:23:17.357Z,46.68
2024-01-15T16:23:31.513Z,46.56
2024-01-15T16:24:04.055Z,46.76
2024-01-15T16:26:12.069Z,46.81
2024-01-15T16:28:39.577Z,46.59
2024-01-15T16:31:08.761Z,46.39
2024-01-15T16:33:37.398Z,46.62
2024-01-15T16:36:05.123Z,46.68
2024-01-15T16:38:32.699Z,46.39
2024-01-15T16:40:59.768Z,46.23
2024-01-15T16:43:27.692Z,46.44
2024-01-15T16:45:54.682Z,46.25
2024-01-15T16:48:22.116Z,46.35
2024-01-15T16:50:49.219Z,46.67
2024-01-15T16:53:16.628Z,46.92
2024-01-15T16:55:44.324Z,46.59
2024-01-15T16:58:12.228Z,47.33
2024-01-15T17:00:39.106Z,47.19
2024-01-15T17:03:07.474Z,47.33
2024-01-15T17:05:34.522Z,47.25
2024-01-15T17:08:02.335Z,47.19
2024-01-15T17:10:29.266Z,47.11
2024-01-15T17:12:56.727Z,47.10
2024-01-15T17:15:23.664Z,46.87
2024-01-15T17:17:50.991Z,46.59
2024-01-15T17:20:18.168Z,46.65
2024-01-15T17:22:45.373Z,46.60
2024-01-15T17:25:12.196Z,47.22
2024-01-15T17:27:39.425Z,46.48
2024-01-15T17:30:08.552Z,46.36
2024-01-15T17:32:35.992Z,46.03
2024-01-15T17:35:02.958Z,46.22
2024-01-15T17:37:30.168Z,46.16
2024-01-15T17:39:56.966Z,45.83
2024-01-15T17:42:24.110Z,46.00
2024-01-15T17:44:52.247Z,45.94
2024-01-15T17:47:19.444Z,46.27
2024-01-15T17:49:46.366Z,45.86
2024-01-15T17:52:13.492Z,46.14
2024-01-15T17:54:40.298Z,45.82
2024-01-15T17:57:07.421Z,46.40
2024-01-15T17:59:35.523Z,45.91
2024-01-15T18:02:02.876Z,45.93
2024-01-15T18:04:30.001Z,46.04
2024-01-15T18:06:57.945Z,46.19
2024-01-15T18:09:24.879Z,45.97
2024-01-15T18:11:52.123Z,45.97
2024-01-15T18:14:18.992Z,46.12
2024-01-15T18:16:49.585Z,46.04
2024-01-15T18:19:18.497Z,45.83
2024-01-15T18:21:45.776Z,46.09
2024-01-15T18:24:12.659Z,45.87
2024-01-15T18:26:42.863Z,46.15
2024-01-15T18:29:10.753Z,46.24
2024-01-15T18:31:37.983Z,46.16
2024-01-15T18:34:04.888Z,46.48
2024-01-15T18:36:37.842Z,46.34
2024-01-15T18:39:08.074Z,46.49
2024-01-15T18:41:37.408Z,46.44
2024-01-15T18:44:04.436Z,46.32
2024-01-15T18:46:31.633Z,46.25
2024-01-15T18:48:58.429Z,46.28
2024-01-15T18:51:25.768Z,46.44
2024-01-15T18:53:52.682Z,46.52
2024-01-15T18:56:20.025Z,46.20
2024-01-15T18:58:46.880Z,46.42
2024-01-15T19:01:14.887Z,46.34
2024-01-15T19:03:42.191Z,46.46
2024-01-15T19:06:10.263Z,46.22
2024-01-15T19:08:37.273Z,45.89
2024-01-15T19:11:04.747Z,46.09
2024-01-15T19:13:31.775Z,46.21
2024-01-15T19:16:01.569Z,46.42
2024-01-15T19:18:28.551Z,46.30
2024-01-15T19:20:55.806Z,46.32
2024-01-15T19:23:23.036Z,46.06
2024-01-15T19:25:50.253Z,46.38
2024-01-15T19:28:17.108Z,46.32
2024-01-15T19:30:44.253Z,46.59
2024-01-15T19:33:11.696Z,46.12
2024-01-15T19:35:39.088Z,46.49
2024-01-15T19:38:07.045Z,46.55
2024-01-15T19:40:34.363Z,46.18
2024-01-15T19:43:03.050Z,46.39
2024-01-15T19:45:32.491Z,46.54
2024-01-15T19:47:59.775Z,46.20
2024-01-15T19:50:27.014Z,46.40
2024-01-15T19:52:54.358Z,46.07
2024-01-15T19:55:21.458Z,46.39
2024-01-15T19:57:49.837Z,46.42
2024-01-15T20:00:17.271Z,46.45
2024-01-15T20:02:44.365Z,46.49
2024-01-15T20:05:14.583Z,46.07
2024-01-15T20:07:41.633Z,46.32
2024-01-15T20:10:11.017Z,46.10
2024-01-15T20:12:39.068Z,46.44
2024-01-15T20:15:06.768Z,46.40
2024-01-15T20:17:33.627Z,46.40
2024-01-15T20:20:00.945Z,46.02
2024-01-15T20:22:28.483Z,46.62
2024-01-15T20:24:56.315Z,46.23
2024-01-15T20:27:23.209Z,46.40
2024-01-15T20:29:50.465Z,46.35
2024-01-15T20:32:19.441Z,46.25
2024-01-15T20:34:46.689Z,46.05
2024-01-15T20:37:13.553Z,46.35
2024-01-15T20:39:40.686Z,46.33
2024-01-15T20:42:07.597Z,46.28
2024-01-15T20:44:34.744Z,46.32
2024-01-15T20:47:01.755Z,46.36
2024-01-15T20:49:28.952Z,46.43
2024-01-15T20:51:55.897Z,46.56
2024-01-15T20:54:22.996Z,46.27
2024-01-15T20:56:49.852Z,46.25
2024-01-15T20:59:17.366Z,46.34
2024-01-15T21:01:44.205Z,46.29
2024-01-15T21:04:12.978Z,46.72
2024-01-15T21:06:39.983Z,46.57
2024-01-15T21:09:08.781Z,46.52
2024-01-15T21:11:35.665Z,46.65
2024-01-15T21:14:03.759Z,46.37
2024-01-15T21:16:30.652Z,46.29
2024-01-15T21:18:57.615Z,46.42
2024-01-15T21:21:25.097Z,46.38
2024-01-15T21:23:52.005Z,46.51
2024-01-15T21:26:19.141Z,46.34
2024-01-15T21:28:46.030Z,46.40
2024-01-15T21:31:13.204Z,46.54
2024-01-15T21:33:43.029Z,46.56
2024-01-15T21:36:10.229Z,46.79
2024-01-15T21:38:37.122Z,46.47
2024-01-15T21:41:04.634Z,46.97
2024-01-15T21:43:31.483Z,46.63
2024-01-15T21:45:58.678Z,46.75
2024-01-15T21:48:25.643Z,46.54
2024-01-15T21:50:52.912Z,46.54
2024-01-15T21:53:19.869Z,46.65
2024-01-15T21:55:46.993Z,46.73
2024-01-15T21:58:13.815Z,46.57
2024-01-15T22:00:41.167Z,46.49
2024-01-15T22:03:08.005Z,46.76
2024-01-15T22:05:35.626Z,46.74
2024-01-15T22:08:02.563Z,46.50
2024-01-15T22:10:29.742Z,47.18
2024-01-15T22:12:56.539Z,47.10
2024-01-15T22:15:23.744Z,47.16
2024-01-15T22:17:50.729Z,46.76
2024-01-15T22:20:17.983Z,46.58
2024-01-15T22:22:44.942Z,46.61
2024-01-15T22:25:12.758Z,46.96
2024-01-15T22:27:39.711Z,47.14
2024-01-15T22:30:07.214Z,46.76
2024-01-15T22:32:34.335Z,47.04
2024-01-15T22:35:01.603Z,46.84
2024-01-15T22:37:28.534Z,47.03
2024-01-15T22:39:55.640Z,47.00
2024-01-15T22:42:22.488Z,46.70
2024-01-15T22:44:49.815Z,46.84
2024-01-15T22:47:16.714Z,47.11
2024-01-15T22:49:44.117Z,46.81
2024-01-15T22:52:10.942Z,46.71
2024-01-15T22:54:57.452Z,46.81
2024-01-15T22:57:24.942Z,46.59
2024-01-15T22:59:52.126Z,47.03
2024-01-15T23:02:19.289Z,46.63
2024-01-15T23:04:47.429Z,46.92
2024-01-15T23:07:14.303Z,46.62
2024-01-15T23:09:42.419Z,46.67
2024-01-15T23:12:09.371Z,47.06
2024-01-15T23:14:37.820Z,46.64
2024-01-15T23:17:04.719Z,46.81
2024-01-15T23:19:31.978Z,47.12
2024-01-15T23:21:58.866Z,47.18
2024-01-15T23:24:26.020Z,47.04
2024-01-15T23:26:53.722Z,46.98
2024-01-15T23:29:20.947Z,47.10
2024-01-15T23:31:47.755Z,47.11
2024-01-15T23:34:14.935Z,47.16
2024-01-15T23:36:46.069Z,47.08
2024-01-15T23:39:13.213Z,47.14
2024-01-15T23:41:40.114Z,47.08
2024-01-15T23:44:07.355Z,47.09
2024-01-15T23:46:34.121Z,47.01
2024-01-15T23:49:01.342Z,47.16
2024-01-15T23:51:28.334Z,46.86
2024-01-15T23:53:55.540Z,46.95
2024-01-15T23:56:22.471Z,46.92
2024-01-15T23:58:50.496Z,46.94
